createdAt,value
2022-11-10T10:02:15.487Z,16.27
2022-11-10T10:05:06.881Z,16.77
2022-11-10T10:07:59.776Z,18.90
2022-11-10T10:10:45.761Z,18.45
2022-11-10T10:13:37.066Z,18.00
2022-11-10T10:16:12.740Z,21.92
2022-11-10T10:18:51.703Z,16.52
2022-11-10T10:21:33.777Z,16.45
2022-11-10T10:24:13.779Z,17.80
2022-11-10T10:26:51.665Z,22.17
2022-11-10T10:29:48.242Z,17.75
2022-11-10T10:32:16.645Z,16.27
2022-11-10T10:34:44.832Z,20.12
2022-11-10T10:37:41.784Z,18.12
2022-11-10T10:40:14.207Z,19.52
2022-11-10T10:42:41.349Z,16.75
2022-11-10T10:45:29.235Z,17.60
2022-11-10T11:43:29.920Z,19.27
2022-11-10T11:46:16.978Z,15.32
2022-11-10T11:48:51.435Z,15.50
2022-11-10T11:51:37.595Z,16.00
2022-11-10T11:54:33.803Z,15.57
2022-11-10T11:57:24.507Z,19.70
2022-11-10T12:00:10.976Z,14.27
2022-11-10T12:03:01.518Z,16.10
2022-11-10T12:05:31.509Z,15.98
2022-11-10T12:08:06.470Z,16.15
2022-11-10T12:16:57.194Z,15.13
2022-11-10T12:19:51.367Z,14.68
2022-11-10T12:22:39.107Z,13.45
2022-11-10T12:25:30.859Z,14.05
2022-11-10T12:28:25.839Z,14.90
2022-11-10T12:31:01.461Z,13.98
2022-11-10T12:33:38.866Z,13.90
2022-11-10T12:36:08.820Z,12.27
2022-11-10T12:39:08.460Z,13.80
2022-11-10T12:41:40.177Z,12.88
2022-11-10T12:44:21.658Z,14.55
2022-11-10T12:46:52.254Z,14.40
2022-11-10T12:49:31.414Z,12.70
2022-11-10T12:52:15.907Z,11.75
2022-11-10T12:54:44.428Z,14.07
2022-11-10T12:57:18.585Z,12.13
2022-11-10T13:00:01.544Z,13.15
2022-11-10T13:02:41.218Z,11.73
2022-11-10T13:05:14.012Z,13.10
2022-11-10T13:07:47.203Z,13.15
2022-11-10T13:10:24.896Z,14.70
2022-11-10T13:13:18.083Z,11.12
2022-11-10T13:15:44.877Z,13.30
2022-11-10T13:20:39.010Z,13.38
2022-11-10T13:26:07.903Z,11.77
2022-11-10T13:28:47.112Z,13.05
2022-11-10T13:31:29.438Z,13.82
2022-11-10T13:34:14.568Z,10.25
2022-11-10T13:36:45.776Z,10.75
2022-11-10T13:39:17.048Z,13.23
2022-11-10T13:41:48.274Z,11.68
2022-11-10T13:44:36.337Z,11.20
2022-11-10T13:47:09.332Z,12.30
2022-11-10T13:49:50.341Z,12.85
2022-11-10T13:55:28.256Z,14.30
2022-11-10T14:00:49.481Z,14.57
2022-11-10T14:03:53.556Z,15.10
2022-11-10T14:06:40.500Z,15.07
2022-11-10T14:09:29.261Z,16.23
2022-11-10T14:12:07.891Z,14.82
2022-11-10T14:14:34.709Z,14.77
2022-11-10T14:19:34.438Z,14.68
2022-11-10T14:22:16.306Z,13.98
2022-11-10T14:24:54.315Z,15.05
2022-11-10T14:27:24.435Z,13.55
2022-11-10T14:30:09.116Z,13.82
2022-11-10T14:32:35.966Z,14.20
2022-11-10T14:37:29.862Z,13.98
2022-11-10T14:40:00.833Z,17.10
2022-11-10T14:42:30.722Z,13.60
2022-11-10T14:45:18.759Z,13.18
2022-11-10T14:47:55.117Z,14.43
2022-11-10T14:50:33.203Z,12.65
2022-11-10T14:53:07.590Z,16.58
2022-11-10T14:55:35.822Z,13.88
2022-11-10T14:58:13.627Z,16.37
2022-11-10T15:00:41.590Z,15.15
2022-11-10T15:03:11.871Z,14.77
2022-11-10T15:05:39.038Z,14.57
2022-11-10T15:08:06.368Z,13.82
2022-11-10T15:10:41.708Z,12.30
2022-11-10T15:13:14.460Z,14.77
2022-11-10T15:15:42.034Z,14.15
2022-11-10T15:18:26.189Z,15.52
2022-11-10T15:21:01.890Z,15.23
2022-11-10T15:23:36.607Z,14.82
2022-11-10T15:26:04.913Z,16.02
2022-11-10T15:28:36.362Z,14.82
2022-11-10T15:31:06.198Z,16.20
2022-11-10T15:33:35.196Z,18.90
2022-11-10T15:36:32.352Z,13.43
2022-11-10T15:39:20.271Z,17.35
2022-11-10T15:41:48.278Z,17.62
2022-11-10T15:44:24.577Z,15.13
2022-11-10T15:46:53.029Z,15.65
2022-11-10T15:49:30.835Z,15.52
2022-11-10T15:52:06.816Z,14.82
2022-11-10T15:54:35.447Z,14.38
2022-11-10T15:57:02.331Z,15.55
2022-11-10T15:59:29.798Z,16.83
2022-11-10T16:01:56.886Z,15.77
2022-11-10T16:04:27.145Z,16.50
2022-11-10T16:06:54.033Z,13.95
2022-11-10T16:09:21.020Z,14.38
2022-11-10T16:11:48.010Z,15.52
2022-11-10T16:14:16.167Z,13.98
2022-11-10T16:16:44.506Z,19.70
2022-11-10T16:19:12.091Z,14.52
2022-11-10T16:21:39.179Z,17.40
2022-11-10T16:24:06.398Z,16.48
2022-11-10T16:26:33.822Z,17.20
2022-11-10T16:29:00.751Z,16.73
2022-11-10T16:31:27.877Z,16.20
2022-11-10T16:33:54.694Z,16.80
2022-11-10T16:38:49.410Z,17.65
2022-11-10T16:41:16.548Z,16.67
2022-11-10T16:43:43.448Z,19.20
2022-11-10T16:46:24.909Z,17.10
2022-11-10T16:48:54.860Z,16.20
2022-11-10T16:51:31.364Z,17.35
2022-11-10T16:53:59.700Z,18.10
2022-11-10T16:56:27.464Z,17.52
2022-11-10T16:59:01.217Z,21.08
2022-11-10T17:01:29.739Z,17.58
2022-11-10T17:03:59.247Z,17.05
2022-11-10T17:06:27.886Z,17.60
2022-11-10T17:08:59.433Z,23.85
2022-11-10T17:11:26.724Z,17.50
2022-11-10T17:13:53.589Z,19.80
2022-11-10T17:18:49.466Z,18.42
2022-11-10T17:21:16.476Z,18.50
2022-11-10T17:23:43.360Z,17.80
2022-11-10T17:26:14.955Z,16.37
2022-11-10T17:28:42.846Z,18.52
2022-11-10T17:31:09.687Z,17.75
2022-11-10T17:36:05.248Z,19.17
2022-11-10T17:38:33.174Z,19.65
2022-11-10T17:41:00.088Z,19.70
2022-11-10T17:43:27.018Z,22.17
2022-11-10T17:45:53.878Z,21.02
2022-11-10T17:50:48.384Z,18.20
2022-11-10T17:53:23.823Z,19.40
2022-11-10T17:55:51.267Z,17.35
2022-11-10T17:58:18.495Z,18.33
2022-11-10T18:00:46.201Z,21.15
2022-11-10T18:03:18.265Z,21.35
2022-11-10T18:05:45.660Z,21.08
2022-11-10T18:08:13.585Z,19.90
2022-11-10T18:10:47.880Z,19.67
2022-11-10T18:13:15.261Z,19.55
2022-11-10T18:15:44.037Z,19.05
2022-11-10T18:18:15.228Z,17.00
2022-11-10T18:20:42.384Z,17.30
2022-11-10T18:23:11.696Z,18.65
2022-11-10T18:25:40.104Z,19.00
2022-11-10T18:28:07.186Z,18.45
2022-11-10T18:30:35.429Z,19.87
2022-11-10T18:33:03.332Z,15.85
2022-11-10T18:35:30.370Z,19.67
2022-11-10T18:37:58.357Z,18.87
2022-11-10T18:40:25.303Z,19.23
2022-11-10T18:42:56.861Z,19.15
2022-11-10T18:45:24.433Z,16.35
2022-11-10T18:47:51.927Z,19.27
2022-11-10T18:50:20.096Z,20.70
2022-11-10T18:52:47.030Z,18.10
2022-11-10T18:55:14.095Z,19.40
2022-11-10T18:57:41.012Z,19.98
2022-11-10T19:00:08.605Z,16.48
2022-11-10T19:02:35.537Z,16.90
2022-11-10T19:05:02.686Z,18.08
2022-11-10T19:07:30.920Z,18.12
2022-11-10T19:09:57.828Z,19.23
2022-11-10T19:12:26.755Z,18.55
2022-11-10T19:14:53.809Z,16.58
2022-11-10T19:17:20.725Z,16.58
2022-11-10T19:19:50.838Z,17.73
2022-11-10T19:22:20.540Z,18.60
2022-11-10T19:25:06.371Z,19.45
2022-11-10T19:27:34.243Z,18.58
2022-11-10T19:30:01.121Z,17.58
2022-11-10T19:34:55.828Z,17.33
2022-11-10T19:37:22.712Z,18.30
2022-11-10T19:39:49.563Z,19.12
2022-11-10T19:44:43.069Z,16.33
2022-11-10T19:49:38.791Z,15.65
2022-11-10T19:52:05.835Z,18.10
2022-11-10T19:54:32.675Z,16.45
2022-11-10T19:59:26.383Z,17.00
2022-11-10T20:04:20.808Z,16.20
2022-11-10T20:06:47.760Z,17.55
2022-11-10T20:09:14.678Z,14.70
2022-11-10T20:14:08.213Z,15.80
2022-11-10T20:19:01.775Z,17.20
2022-11-10T20:23:56.208Z,16.95
2022-11-10T20:26:24.228Z,17.27
2022-11-10T20:28:52.154Z,17.50
2022-11-10T20:31:22.296Z,18.60
2022-11-10T20:33:49.783Z,17.98
2022-11-10T20:36:27.947Z,16.80
2022-11-10T20:38:56.134Z,19.08
2022-11-10T20:41:25.458Z,16.85
2022-11-10T20:43:52.526Z,15.50
2022-11-10T20:49:08.189Z,20.12
2022-11-10T20:51:35.044Z,19.30
2022-11-10T20:56:30.084Z,15.43
2022-11-10T20:58:59.252Z,17.27
2022-11-10T21:01:26.331Z,18.40
2022-11-10T21:03:53.436Z,18.73
2022-11-10T21:06:20.341Z,20.83
2022-11-10T21:08:47.175Z,19.90
2022-11-10T21:14:01.660Z,18.67
2022-11-10T21:16:28.896Z,18.92
2022-11-10T21:18:56.752Z,18.58
2022-11-10T21:21:34.137Z,20.17
2022-11-10T21:26:28.289Z,20.52
2022-11-10T21:28:55.221Z,19.77
2022-11-10T21:31:22.066Z,20.62
2022-11-10T21:36:15.866Z,18.42
2022-11-10T21:38:46.498Z,17.98
2022-11-10T21:41:13.843Z,19.65
2022-11-10T21:43:41.290Z,17.45
2022-11-10T21:46:08.433Z,22.30
2022-11-10T21:48:35.625Z,23.17
2022-11-10T21:51:03.453Z,23.77
2022-11-10T21:53:30.738Z,23.20
2022-11-10T21:56:05.424Z,22.45
2022-11-10T21:58:35.228Z,24.70
2022-11-10T22:01:23.859Z,23.40
2022-11-10T22:03:50.826Z,24.12
2022-11-10T22:08:46.602Z,21.20
2022-11-10T22:11:34.223Z,22.15
2022-11-10T22:14:19.900Z,22.33
2022-11-10T22:17:09.753Z,23.40
2022-11-10T22:19:37.423Z,21.45
2022-11-10T22:22:04.575Z,23.10
2022-11-10T22:24:31.899Z,20.25
2022-11-10T22:27:03.641Z,20.83
2022-11-10T22:29:33.460Z,25.12
2022-11-10T22:32:01.043Z,22.05
2022-11-10T22:34:28.001Z,26.00
2022-11-10T22:36:54.850Z,20.55
2022-11-10T22:42:07.486Z,19.15
2022-11-10T22:44:34.452Z,21.20
2022-11-10T22:47:01.321Z,21.45
2022-11-10T22:51:55.623Z,18.58
2022-11-10T22:54:24.572Z,16.92
2022-11-10T22:56:52.099Z,18.50
2022-11-10T22:59:19.562Z,19.12
2022-11-10T23:01:46.615Z,15.77
2022-11-10T23:04:16.112Z,22.75
2022-11-10T23:06:43.672Z,19.12
2022-11-10T23:09:10.715Z,19.62
2022-11-10T23:11:37.617Z,18.40
2022-11-10T23:14:04.548Z,19.62
2022-11-10T23:16:34.718Z,17.85
2022-11-10T23:19:01.741Z,20.62
2022-11-10T23:21:30.539Z,17.90
2022-11-10T23:23:57.460Z,21.75
2022-11-10T23:26:34.102Z,17.77
2022-11-10T23:29:01.014Z,16.05
2022-11-10T23:31:28.769Z,18.40
2022-11-10T23:33:56.456Z,17.17
2022-11-10T23:36:24.877Z,16.60
2022-11-10T23:38:51.952Z,17.62
2022-11-10T23:41:20.874Z,16.75
2022-11-10T23:43:47.818Z,21.45
2022-11-10T23:46:15.097Z,19.17
2022-11-10T23:48:42.729Z,19.15
2022-11-10T23:51:12.185Z,17.48
2022-11-10T23:53:39.356Z,16.60
2022-11-10T23:56:10.573Z,18.42
2022-11-10T23:58:38.434Z,15.43
